createdAt,value
2023-05-18T00:01:15.502Z,3.50
2023-05-18T00:03:43.629Z,3.37
2023-05-18T00:06:14.014Z,3.30
2023-05-18T00:08:41.953Z,3.57
2023-05-18T00:11:09.919Z,3.93
2023-05-18T00:13:37.859Z,3.43
2023-05-18T00:16:05.958Z,3.97
2023-05-18T00:18:34.405Z,3.90
2023-05-18T00:21:02.735Z,3.90
2023-05-18T00:23:33.108Z,3.27
2023-05-18T00:26:02.334Z,3.90
2023-05-18T00:28:33.181Z,4.67
2023-05-18T00:31:01.520Z,3.97
2023-05-18T00:33:29.448Z,4.00
2023-05-18T00:35:57.964Z,3.50
2023-05-18T00:38:26.004Z,3.93
2023-05-18T00:40:55.482Z,3.67
2023-05-18T00:43:23.611Z,3.90
2023-05-18T00:45:51.521Z,4.13
2023-05-18T00:48:19.481Z,4.20
2023-05-18T00:50:47.705Z,4.10
2023-05-18T00:53:15.858Z,3.80
2023-05-18T00:55:44.073Z,3.93
2023-05-18T00:58:14.235Z,4.07
2023-05-18T01:00:42.279Z,3.77
2023-05-18T01:03:12.038Z,3.97
2023-05-18T01:05:40.256Z,4.53
2023-05-18T01:08:08.755Z,4.63
2023-05-18T01:10:41.955Z,4.37
2023-05-18T01:13:19.446Z,4.30
2023-05-18T01:15:53.427Z,3.90
2023-05-18T01:18:30.710Z,3.80
2023-05-18T01:21:01.294Z,3.97
2023-05-18T01:24:04.996Z,4.40
2023-05-18T01:26:38.131Z,3.97
2023-05-18T01:29:10.151Z,4.23
2023-05-18T01:31:38.920Z,4.03
2023-05-18T01:34:07.001Z,4.50
2023-05-18T01:36:34.943Z,4.80
2023-05-18T01:39:03.653Z,4.90
2023-05-18T01:41:36.441Z,5.00
2023-05-18T01:44:13.347Z,4.80
2023-05-18T01:46:53.773Z,5.07
2023-05-18T01:49:33.616Z,5.10
2023-05-18T01:52:05.742Z,4.77
2023-05-18T01:54:37.387Z,5.30
2023-05-18T01:57:10.525Z,5.63
2023-05-18T01:59:39.616Z,5.70
2023-05-18T02:02:07.913Z,5.17
2023-05-18T02:04:37.345Z,5.90
2023-05-18T02:07:05.744Z,5.27
2023-05-18T02:09:33.669Z,5.50
2023-05-18T02:12:02.589Z,5.90
2023-05-18T02:14:32.390Z,5.73
2023-05-18T02:17:01.073Z,6.17
2023-05-18T02:19:31.106Z,5.43
2023-05-18T02:21:59.128Z,5.77
2023-05-18T02:24:27.209Z,5.60
2023-05-18T02:26:55.086Z,5.80
2023-05-18T02:29:23.074Z,6.03
2023-05-18T02:31:52.480Z,6.17
2023-05-18T02:34:22.002Z,6.23
2023-05-18T02:36:49.941Z,5.87
2023-05-18T02:39:18.753Z,6.43
2023-05-18T02:41:46.604Z,6.43
2023-05-18T02:44:14.479Z,6.20
2023-05-18T02:46:43.378Z,6.17
2023-05-18T02:49:12.712Z,6.30
2023-05-18T02:51:41.334Z,6.10
2023-05-18T02:54:09.649Z,5.50
2023-05-18T02:56:41.563Z,5.40
2023-05-18T02:59:21.785Z,5.57
2023-05-18T03:01:50.036Z,6.10
2023-05-18T03:04:19.987Z,5.83
2023-05-18T03:06:52.998Z,6.33
2023-05-18T03:09:22.357Z,5.57
2023-05-18T03:11:53.528Z,6.57
2023-05-18T03:14:21.665Z,5.80
2023-05-18T03:16:53.707Z,6.27
2023-05-18T03:19:24.389Z,6.20
2023-05-18T03:21:52.296Z,6.57
2023-05-18T03:24:20.356Z,6.33
2023-05-18T03:26:50.189Z,6.20
2023-05-18T03:29:18.010Z,5.87
2023-05-18T03:31:46.059Z,6.47
2023-05-18T03:34:14.794Z,6.70
2023-05-18T03:36:47.526Z,6.47
2023-05-18T03:39:15.883Z,6.07
2023-05-18T03:41:43.659Z,7.00
2023-05-18T03:44:11.517Z,7.00
2023-05-18T03:46:39.539Z,6.67
2023-05-18T03:49:07.967Z,6.03
2023-05-18T03:51:40.386Z,6.60
2023-05-18T03:54:09.686Z,6.90
2023-05-18T03:56:37.702Z,7.30
2023-05-18T03:59:06.567Z,6.50
2023-05-18T04:01:34.921Z,6.53
2023-05-18T04:04:02.863Z,7.03
2023-05-18T04:06:31.106Z,7.00
2023-05-18T04:09:02.661Z,7.20
2023-05-18T04:11:32.084Z,6.90
2023-05-18T04:14:00.881Z,6.70
2023-05-18T04:16:29.123Z,8.03
2023-05-18T04:18:57.105Z,7.93
2023-05-18T04:21:25.110Z,7.17
2023-05-18T04:23:53.186Z,7.47
2023-05-18T04:26:22.142Z,7.87
2023-05-18T04:28:53.417Z,7.20
2023-05-18T04:31:21.855Z,7.50
2023-05-18T04:33:51.312Z,7.47
2023-05-18T04:36:21.221Z,7.43
2023-05-18T04:38:50.823Z,7.33
2023-05-18T04:41:20.465Z,7.30
2023-05-18T04:43:50.174Z,7.50
2023-05-18T04:46:19.835Z,7.33
2023-05-18T04:48:50.117Z,7.50
2023-05-18T04:51:21.767Z,8.23
2023-05-18T04:53:50.342Z,7.37
2023-05-18T04:56:18.735Z,8.07
2023-05-18T04:58:48.140Z,7.33
2023-05-18T05:01:16.985Z,7.73
2023-05-18T05:03:46.597Z,8.67
2023-05-18T05:06:15.907Z,8.60
2023-05-18T05:08:43.971Z,7.90
2023-05-18T05:11:12.509Z,7.93
2023-05-18T05:13:40.330Z,8.03
2023-05-18T05:16:08.365Z,7.00
2023-05-18T05:18:36.226Z,7.60
2023-05-18T05:21:06.424Z,7.23
2023-05-18T05:23:34.253Z,7.73
2023-05-18T05:26:02.177Z,8.10
2023-05-18T05:28:30.583Z,7.23
2023-05-18T05:30:58.426Z,7.10
2023-05-18T05:33:26.717Z,7.33
2023-05-18T05:35:55.188Z,7.33
2023-05-18T05:38:24.376Z,6.73
2023-05-18T05:40:52.765Z,7.23
2023-05-18T05:43:21.279Z,7.07
2023-05-18T05:45:49.621Z,7.70
2023-05-18T05:48:19.072Z,7.23
2023-05-18T05:50:47.275Z,6.17
2023-05-18T05:53:17.855Z,6.77
2023-05-18T05:55:47.599Z,6.90
2023-05-18T05:58:17.649Z,6.80
2023-05-18T06:00:52.404Z,7.07
2023-05-18T06:03:20.818Z,6.50
2023-05-18T06:05:50.993Z,6.37
2023-05-18T06:08:21.120Z,6.30
2023-05-18T06:10:51.019Z,5.93
2023-05-18T06:13:19.449Z,6.50
2023-05-18T06:15:50.895Z,5.87
2023-05-18T06:18:18.878Z,6.03
2023-05-18T06:20:47.346Z,5.30
2023-05-18T06:23:22.370Z,5.77
2023-05-18T06:26:18.112Z,5.50
2023-05-18T06:28:55.986Z,5.40
2023-05-18T06:31:47.304Z,4.73
2023-05-18T06:34:21.784Z,5.17
2023-05-18T06:36:49.608Z,4.90
2023-05-18T06:39:17.906Z,5.30
2023-05-18T06:41:47.226Z,4.10
2023-05-18T06:44:22.865Z,4.90
2023-05-18T06:47:07.596Z,4.83
2023-05-18T06:49:35.659Z,4.87
2023-05-18T06:52:03.769Z,4.60
2023-05-18T06:54:31.924Z,4.27
2023-05-18T06:57:01.762Z,3.80
2023-05-18T06:59:30.375Z,4.97
2023-05-18T07:01:58.470Z,4.43
2023-05-18T07:04:27.612Z,4.80
2023-05-18T07:06:56.050Z,4.17
2023-05-18T07:09:23.912Z,4.77
2023-05-18T07:11:51.703Z,4.27
2023-05-18T07:14:20.992Z,3.57
2023-05-18T07:16:48.945Z,3.90
2023-05-18T07:19:16.960Z,3.90
2023-05-18T07:21:44.852Z,3.57
2023-05-18T07:24:12.649Z,3.90
2023-05-18T07:26:40.547Z,3.50
2023-05-18T07:29:08.426Z,3.92
2023-05-18T07:31:39.189Z,3.77
2023-05-18T07:34:09.847Z,3.85
2023-05-18T07:36:37.676Z,3.63
2023-05-18T07:39:05.578Z,3.83
2023-05-18T07:41:33.432Z,3.60
2023-05-18T07:44:01.303Z,3.90
2023-05-18T07:46:29.294Z,4.45
2023-05-18T07:49:00.615Z,3.17
2023-05-18T07:51:29.734Z,3.10
2023-05-18T07:53:57.766Z,3.70
2023-05-18T07:56:25.900Z,3.33
2023-05-18T07:58:53.772Z,3.40
2023-05-18T08:01:25.000Z,4.25
2023-05-18T08:03:53.055Z,3.45
2023-05-18T08:06:22.337Z,3.08
2023-05-18T08:08:50.237Z,3.65
2023-05-18T08:11:18.056Z,3.17
2023-05-18T08:13:45.904Z,3.63
2023-05-18T08:16:13.796Z,3.95
2023-05-18T08:18:42.272Z,3.80
2023-05-18T08:21:10.565Z,3.53
2023-05-18T08:23:40.802Z,2.85
2023-05-18T08:26:10.532Z,3.08
2023-05-18T08:28:39.278Z,3.10
2023-05-18T08:31:07.209Z,3.13
2023-05-18T08:33:35.014Z,2.83
2023-05-18T08:36:03.173Z,3.28
2023-05-18T08:38:31.980Z,3.20
2023-05-18T08:41:07.044Z,2.75
2023-05-18T08:43:39.121Z,3.30
2023-05-18T08:46:14.602Z,3.50
2023-05-18T08:48:46.714Z,2.83
2023-05-18T08:51:17.039Z,3.00
2023-05-18T08:53:47.242Z,2.67
2023-05-18T08:56:17.812Z,2.67
2023-05-18T08:58:49.017Z,3.00
2023-05-18T09:01:17.842Z,2.95
2023-05-18T09:03:49.224Z,3.25
2023-05-18T09:06:17.330Z,3.00
2023-05-18T09:08:47.167Z,3.47
2023-05-18T09:11:18.389Z,3.40
2023-05-18T09:13:46.434Z,2.72
2023-05-18T09:16:14.479Z,3.35
2023-05-18T09:18:42.589Z,3.00
2023-05-18T09:21:10.813Z,2.90
2023-05-18T09:23:39.616Z,3.08
2023-05-18T09:28:41.002Z,2.95
2023-05-18T09:31:12.635Z,2.88
2023-05-18T09:33:41.823Z,3.08
2023-05-18T09:36:11.026Z,3.70
2023-05-18T09:38:40.602Z,2.90
2023-05-18T09:41:12.571Z,3.47
2023-05-18T09:43:43.969Z,3.55
2023-05-18T09:46:13.540Z,3.35
2023-05-18T09:48:44.525Z,3.53
2023-05-18T09:51:13.732Z,2.95
2023-05-18T09:53:41.689Z,3.05
2023-05-18T09:56:12.111Z,3.13
2023-05-18T09:58:40.747Z,3.05
2023-05-18T10:01:10.100Z,2.80
2023-05-18T10:03:39.340Z,3.33
2023-05-18T10:06:09.289Z,2.90
2023-05-18T10:08:38.424Z,3.25
2023-05-18T10:11:06.977Z,2.85
2023-05-18T10:13:35.816Z,3.55
2023-05-18T10:16:05.979Z,3.00
2023-05-18T10:18:37.266Z,2.60
2023-05-18T10:21:08.121Z,3.20
2023-05-18T10:23:37.727Z,3.10
2023-05-18T10:26:07.389Z,3.33
2023-05-18T10:28:42.371Z,15.40
2023-05-18T10:31:11.007Z,3.58
2023-05-18T10:33:40.470Z,2.90
2023-05-18T10:36:10.222Z,2.97
2023-05-18T10:38:40.542Z,3.08
2023-05-18T10:41:09.179Z,3.17
2023-05-18T10:43:37.909Z,3.22
2023-05-18T10:46:08.538Z,3.83
2023-05-18T10:48:41.317Z,2.75
2023-05-18T10:51:09.900Z,2.90
2023-05-18T10:53:37.876Z,3.00
2023-05-18T10:56:07.874Z,2.92
2023-05-18T10:58:38.667Z,3.15
2023-05-18T11:01:09.621Z,2.97
2023-05-18T11:03:40.260Z,2.90
2023-05-18T11:06:11.726Z,2.80
2023-05-18T11:08:49.486Z,2.83
2023-05-18T11:11:19.497Z,3.05
2023-05-18T11:13:51.560Z,3.33
2023-05-18T11:16:20.736Z,3.30
2023-05-18T11:18:51.039Z,2.35
2023-05-18T11:21:35.433Z,2.53
2023-05-18T11:24:21.749Z,2.38
2023-05-18T11:26:51.367Z,2.97
2023-05-18T11:29:21.301Z,2.83
2023-05-18T11:31:51.239Z,2.80
2023-05-18T11:34:44.664Z,3.33
2023-05-18T11:37:15.547Z,3.20
2023-05-18T11:40:00.103Z,3.33
2023-05-18T11:42:34.886Z,2.80
2023-05-18T11:45:07.707Z,2.67
2023-05-18T11:47:36.537Z,3.08
2023-05-18T11:50:07.875Z,2.70
2023-05-18T11:52:47.907Z,2.90
2023-05-18T11:55:17.605Z,2.92
2023-05-18T11:57:46.560Z,2.95
2023-05-18T12:00:16.121Z,3.08
2023-05-18T12:02:46.403Z,2.97
2023-05-18T12:05:15.350Z,3.13
2023-05-18T12:07:45.006Z,3.03
2023-05-18T12:10:15.003Z,3.00
2023-05-18T12:12:43.369Z,2.67
2023-05-18T12:15:16.464Z,3.10
2023-05-18T12:17:47.162Z,2.92
2023-05-18T12:20:16.636Z,3.28
2023-05-18T12:22:47.065Z,3.00
2023-05-18T12:25:14.954Z,3.00
2023-05-18T12:27:44.468Z,3.35
2023-05-18T12:30:13.933Z,2.90
2023-05-18T12:32:46.227Z,2.95
2023-05-18T12:35:14.300Z,2.42
2023-05-18T12:37:47.989Z,2.50
2023-05-18T12:40:19.067Z,2.95
2023-05-18T12:42:54.558Z,3.05
2023-05-18T12:45:24.516Z,2.63
2023-05-18T12:47:54.520Z,2.70
2023-05-18T12:50:23.587Z,2.20
2023-05-18T12:52:53.015Z,2.45
2023-05-18T12:55:22.877Z,2.53
2023-05-18T12:58:02.022Z,2.40
2023-05-18T13:00:33.751Z,2.78
2023-05-18T13:03:14.653Z,2.67
2023-05-18T13:05:45.232Z,2.63
2023-05-18T13:08:18.078Z,2.70
2023-05-18T13:10:48.041Z,3.03
2023-05-18T13:13:21.071Z,2.65
2023-05-18T13:15:48.962Z,2.13
2023-05-18T13:18:16.967Z,2.75
2023-05-18T13:20:48.465Z,2.63
2023-05-18T13:23:20.047Z,2.22
2023-05-18T13:25:48.621Z,2.45
2023-05-18T13:28:18.346Z,2.40
2023-05-18T13:30:48.639Z,2.35
2023-05-18T13:33:17.950Z,2.40
2023-05-18T13:35:46.929Z,2.30
2023-05-18T13:38:16.861Z,2.60
2023-05-18T13:40:45.697Z,2.80
2023-05-18T13:43:14.129Z,2.80
2023-05-18T13:45:42.990Z,2.58
2023-05-18T13:48:11.369Z,6.75
2023-05-18T13:50:39.933Z,2.67
2023-05-18T13:53:07.950Z,2.58
2023-05-18T13:55:37.189Z,2.65
2023-05-18T13:58:05.312Z,2.90
2023-05-18T14:00:33.994Z,2.70
2023-05-18T14:03:02.678Z,2.63
2023-05-18T14:05:30.696Z,2.53
2023-05-18T14:07:58.502Z,2.42
2023-05-18T14:10:26.773Z,2.60
2023-05-18T14:12:56.274Z,2.17
2023-05-18T14:15:24.379Z,2.58
2023-05-18T14:17:53.055Z,2.47
2023-05-18T14:20:20.960Z,1.95
2023-05-18T14:22:49.050Z,2.45
2023-05-18T14:25:17.061Z,2.80
2023-05-18T14:27:44.928Z,2.58
2023-05-18T14:30:14.520Z,2.70
2023-05-18T14:32:42.377Z,1.98
2023-05-18T14:35:10.579Z,2.40
2023-05-18T14:37:38.405Z,2.65
2023-05-18T14:40:07.458Z,2.28
2023-05-18T14:42:36.458Z,3.30
2023-05-18T14:45:05.066Z,2.45
2023-05-18T14:47:34.372Z,2.78
2023-05-18T14:50:02.183Z,2.60
2023-05-18T14:52:30.058Z,2.60
2023-05-18T14:54:57.870Z,2.45
2023-05-18T14:57:27.001Z,2.05
2023-05-18T14:59:54.929Z,2.50
2023-05-18T15:02:22.816Z,2.35
2023-05-18T15:04:51.994Z,2.35
2023-05-18T15:07:19.861Z,2.65
2023-05-18T15:09:47.641Z,2.33
2023-05-18T15:12:17.041Z,2.53
2023-05-18T15:14:44.774Z,2.40
2023-05-18T15:17:13.546Z,2.08
2023-05-18T15:19:41.384Z,2.33
2023-05-18T15:22:10.696Z,2.47
2023-05-18T15:24:38.467Z,3.05
2023-05-18T15:27:06.791Z,2.72
2023-05-18T15:29:34.768Z,2.72
2023-05-18T15:32:02.646Z,2.78
2023-05-18T15:34:33.296Z,2.55
2023-05-18T15:37:01.396Z,2.20
2023-05-18T15:39:31.408Z,2.97
2023-05-18T15:41:59.189Z,2.47
2023-05-18T15:44:29.384Z,2.25
2023-05-18T15:46:57.601Z,2.03
2023-05-18T15:49:26.289Z,2.28
2023-05-18T15:51:54.040Z,2.92
2023-05-18T15:54:21.851Z,3.33
2023-05-18T15:56:51.117Z,3.22
2023-05-18T15:59:18.930Z,2.40
2023-05-18T16:01:46.959Z,2.95
2023-05-18T16:04:14.908Z,2.17
2023-05-18T16:06:42.710Z,2.38
2023-05-18T16:09:10.652Z,2.42
2023-05-18T16:11:38.659Z,2.70
2023-05-18T16:14:07.756Z,2.80
2023-05-18T16:16:35.637Z,2.90
2023-05-18T16:19:05.062Z,2.45
2023-05-18T16:21:32.974Z,2.55
2023-05-18T16:24:00.918Z,2.47
2023-05-18T16:26:28.806Z,2.75
2023-05-18T16:28:56.602Z,2.60
2023-05-18T16:31:25.869Z,2.65
2023-05-18T16:33:53.773Z,3.05
2023-05-18T16:36:21.592Z,2.60
2023-05-18T16:38:49.371Z,2.55
2023-05-18T16:41:17.563Z,2.40
2023-05-18T16:43:45.717Z,2.50
2023-05-18T16:46:13.642Z,2.33
2023-05-18T16:48:42.835Z,2.47
2023-05-18T16:51:10.656Z,2.30
2023-05-18T16:53:38.819Z,2.38
2023-05-18T16:56:07.160Z,2.50
2023-05-18T16:58:34.951Z,2.38
2023-05-18T17:01:03.103Z,2.88
2023-05-18T17:03:34.437Z,2.22
2023-05-18T17:06:03.798Z,2.85
2023-05-18T17:08:31.902Z,2.63
2023-05-18T17:10:59.717Z,2.60
2023-05-18T17:13:27.554Z,2.38
2023-05-18T17:15:55.391Z,2.72
2023-05-18T17:18:23.259Z,2.72
2023-05-18T17:20:51.053Z,2.50
2023-05-18T17:23:20.180Z,3.35
2023-05-18T17:25:48.564Z,2.70
2023-05-18T17:28:18.853Z,2.80
2023-05-18T17:30:46.694Z,2.63
2023-05-18T17:33:14.636Z,2.65
2023-05-18T17:35:42.477Z,2.70
2023-05-18T17:38:10.248Z,2.85
2023-05-18T17:40:39.432Z,2.92
2023-05-18T17:43:07.200Z,2.20
2023-05-18T17:45:35.039Z,2.38
2023-05-18T17:48:02.908Z,2.53
2023-05-18T17:50:30.863Z,4.63
2023-05-18T17:52:58.869Z,2.60
2023-05-18T17:55:26.652Z,2.60
2023-05-18T17:57:56.015Z,2.13
2023-05-18T18:00:23.925Z,2.58
2023-05-18T18:02:51.753Z,2.70
2023-05-18T18:05:19.626Z,3.55
2023-05-18T18:07:47.373Z,2.80
2023-05-18T18:10:15.160Z,2.78
2023-05-18T18:12:43.869Z,2.38
2023-05-18T18:15:14.188Z,2.90
2023-05-18T18:17:42.042Z,3.33
2023-05-18T18:20:10.676Z,2.50
2023-05-18T18:22:38.520Z,2.70
2023-05-18T18:25:06.920Z,2.60
2023-05-18T18:27:34.717Z,2.72
2023-05-18T18:30:02.685Z,2.72
2023-05-18T18:32:32.024Z,2.50
2023-05-18T18:34:59.979Z,2.42
2023-05-18T18:37:28.366Z,2.50
2023-05-18T18:39:56.794Z,2.83
2023-05-18T18:42:24.853Z,2.60
2023-05-18T18:44:56.723Z,3.50
2023-05-18T18:47:24.786Z,2.47
2023-05-18T18:49:53.975Z,2.53
2023-05-18T18:52:21.834Z,2.88
2023-05-18T18:54:49.642Z,2.45
2023-05-18T18:57:17.479Z,2.60
2023-05-18T18:59:45.284Z,2.63
2023-05-18T19:02:13.304Z,2.70
2023-05-18T19:04:41.229Z,2.92
2023-05-18T19:07:10.431Z,2.78
2023-05-18T19:09:38.244Z,2.58
2023-05-18T19:12:07.052Z,2.45
2023-05-18T19:14:34.996Z,2.60
2023-05-18T19:17:03.078Z,2.67
2023-05-18T19:19:32.559Z,2.67
2023-05-18T19:22:00.569Z,2.63
2023-05-18T19:24:30.382Z,2.80
2023-05-18T19:27:02.059Z,2.97
2023-05-18T19:29:29.876Z,2.97
2023-05-18T19:31:58.218Z,2.60
2023-05-18T19:34:26.058Z,2.60
2023-05-18T19:36:54.544Z,2.72
2023-05-18T19:39:22.381Z,2.97
2023-05-18T19:41:51.569Z,3.00
2023-05-18T19:44:19.382Z,2.50
2023-05-18T19:46:47.331Z,3.53
2023-05-18T19:49:15.088Z,3.85
2023-05-18T19:51:42.908Z,2.55
2023-05-18T19:54:10.817Z,2.72
2023-05-18T19:56:38.762Z,3.30
2023-05-18T19:59:12.055Z,2.78
2023-05-18T20:01:40.418Z,3.20
2023-05-18T20:04:08.358Z,2.97
2023-05-18T20:06:36.860Z,2.65
2023-05-18T20:09:04.782Z,2.53
2023-05-18T20:11:32.670Z,2.90
2023-05-18T20:14:01.319Z,2.60
2023-05-18T20:16:33.876Z,2.88
2023-05-18T20:19:04.905Z,2.67
2023-05-18T20:21:32.881Z,2.65
2023-05-18T20:24:01.067Z,2.60
2023-05-18T20:26:31.350Z,2.85
2023-05-18T20:29:00.044Z,2.95
2023-05-18T20:31:27.900Z,3.33
2023-05-18T20:33:57.847Z,3.22
2023-05-18T20:36:26.614Z,2.83
2023-05-18T20:38:54.621Z,3.30
2023-05-18T20:41:23.212Z,3.13
2023-05-18T20:43:51.290Z,2.55
2023-05-18T20:46:23.855Z,2.92
2023-05-18T20:48:54.959Z,2.95
2023-05-18T20:51:24.749Z,2.88
2023-05-18T20:53:52.959Z,3.17
2023-05-18T20:56:21.842Z,2.97
2023-05-18T20:58:50.478Z,2.60
2023-05-18T21:01:18.686Z,3.00
2023-05-18T21:03:47.766Z,3.67
2023-05-18T21:06:15.864Z,4.18
2023-05-18T21:08:45.662Z,3.65
2023-05-18T21:11:13.557Z,4.10
2023-05-18T21:13:41.348Z,3.20
2023-05-18T21:16:09.615Z,3.17
2023-05-18T21:18:38.226Z,2.85
2023-05-18T21:21:06.313Z,3.17
2023-05-18T21:23:34.232Z,2.88
2023-05-18T21:26:03.429Z,3.38
2023-05-18T21:28:31.228Z,2.78
2023-05-18T21:30:59.401Z,3.08
2023-05-18T21:33:27.268Z,3.28
2023-05-18T21:35:55.167Z,3.10
2023-05-18T21:38:23.373Z,3.55
2023-05-18T21:40:51.227Z,3.97
2023-05-18T21:43:20.391Z,3.38
2023-05-18T21:45:48.347Z,3.70
2023-05-18T21:48:16.151Z,3.75
2023-05-18T21:50:43.982Z,3.67
2023-05-18T21:53:11.776Z,3.28
2023-05-18T21:55:39.697Z,4.27
2023-05-18T21:58:07.431Z,4.05
2023-05-18T22:00:38.026Z,4.33
2023-05-18T22:03:05.967Z,4.27
2023-05-18T22:05:33.739Z,4.00
2023-05-18T22:08:01.579Z,3.90
2023-05-18T22:10:31.106Z,3.87
2023-05-18T22:12:59.228Z,4.50
2023-05-18T22:15:27.114Z,4.13
2023-05-18T22:17:56.852Z,3.77
2023-05-18T22:20:24.658Z,3.80
2023-05-18T22:22:52.424Z,3.83
2023-05-18T22:25:20.242Z,4.93
2023-05-18T22:27:48.144Z,4.80
2023-05-18T22:30:17.417Z,4.10
2023-05-18T22:32:47.230Z,5.60
2023-05-18T22:35:16.677Z,5.20
2023-05-18T22:37:44.494Z,5.00
2023-05-18T22:40:13.145Z,4.93
2023-05-18T22:42:41.019Z,4.67
2023-05-18T22:45:11.469Z,5.20
2023-05-18T22:47:39.998Z,5.00
2023-05-18T22:50:09.211Z,4.93
2023-05-18T22:52:38.699Z,5.67
2023-05-18T22:55:12.872Z,5.63
2023-05-18T22:57:41.116Z,5.13
2023-05-18T23:00:10.482Z,5.00
2023-05-18T23:02:38.378Z,5.57
2023-05-18T23:05:06.751Z,5.20
2023-05-18T23:07:36.206Z,5.53
2023-05-18T23:10:06.377Z,5.33
2023-05-18T23:12:34.365Z,5.73
2023-05-18T23:15:03.813Z,5.10
2023-05-18T23:17:32.049Z,4.90
2023-05-18T23:20:02.685Z,5.30
2023-05-18T23:22:30.504Z,5.03
2023-05-18T23:24:58.254Z,5.57
2023-05-18T23:27:27.501Z,5.50
2023-05-18T23:29:55.349Z,5.97
2023-05-18T23:32:23.727Z,5.07
2023-05-18T23:34:52.899Z,5.37
2023-05-18T23:37:24.678Z,5.40
2023-05-18T23:39:53.571Z,5.20
2023-05-18T23:42:22.094Z,4.87
2023-05-18T23:44:51.910Z,5.10
2023-05-18T23:47:20.139Z,5.17
2023-05-18T23:49:48.338Z,5.33
2023-05-18T23:52:20.877Z,5.43
2023-05-18T23:54:52.720Z,5.67
2023-05-18T23:57:21.024Z,5.57
2023-05-18T23:59:49.792Z,4.80
